Airfield :
LOGIN :

Register | Disclaimer

   EN    FR    IT 

 










Legend :    VFR   Marginal VFR   IFR   Intensive IFR   Very Intensive IFR
Visi :
Ceiling :
>= 8 km
>= 3000ft
5 to 8 km
1000 to 3000 ft
1500m to 5 km
500 to 1000 ft
800 to 1500m
200 to 500 ft
< 800m
< 200 ft
Symbols :   Thunderstorms  Fog  Heavy snow  Heavy precipitations  Wind > 20 kt
SIGMETs :     Misc.  Thunderstorms  Icing  Turbulence  Mountain Waves  Volcanic Ashes






- Airport Elevation : 375 ft
- IATA code : MST


EHBK - Maastricht Aachen

CURRENT METAR :
  • 140725Z AUTO 25012G23KT 210V300 9999 FEW011 BKN014 OVC016 05/03 Q0988 NOSIG

EXPIRED METARs :
  • 140655Z AUTO 26014G24KT 210V310 9999 FEW008 BKN010 BKN013 05/04 Q0987 NOSIG
  • 140625Z AUTO 27011KT 220V320 9999 SCT007 BKN008 OVC009 05/04 Q0986 BECMG BKN012
  • 140555Z AUTO 30011KT 250V350 9999 DZ FEW007 BKN009 OVC010 05/04 Q0984 BECMG BKN012
  • 140525Z AUTO 30019G31KT 230V360 9999 SCT007 BKN008 OVC009 06/05 Q0982 REDZ TEMPO BKN012
  • 140455Z AUTO 23018KT 200V270 8000 -UP SCT006 BKN008 OVC009 07/07 Q0980

TAF TAF EHBK
Valid from the 14 at 06:00 until the 15 at 12:00 UTC


140511Z 1406/1512 30015KT 9999 BKN018
PROB30
TEMPO 1406/1408 25022G35KT 4000 RADZ SCT008 BKN012
BECMG 1407/1410 25018G30KT
PROB40
TEMPO 1413/1417 6000 RA SHRA BKN012 SCT020CB
BECMG 1418/1421 21012KT
BECMG 1503/1506 24017KT
PROB40
TEMPO 1504/1507 24025G35KT 4000 SHRA RA SCT012CB BKN015



MET'MAP, your aeronautical weather chart ! - Copyright ORBIFLY December 2007 - Disclaimer

ORBIFLY MET'MAP TEAM :

Programming & Development : Alexandra Zaïnal
Concept & original design : Baudouin d'Aumeries
Assistance for programming : Marc-Olivier Méhu
Technical & hardware support : Manuel Goepfert

Contact : metmap@orbifly.com




SOURCES & CREDITS :

   NOAA